sensor_id;sensor_type;location;lat;lon;timestamp;pressure;altitude;pressure_sealevel;temperature;humidity
29379;BME280;16362;47.202;15.258;2024-02-26T00:01:14;95109.41;;;-0.82;100.00
29379;BME280;16362;47.202;15.258;2024-02-26T00:03:43;95113.38;;;-0.88;100.00
29379;BME280;16362;47.202;15.258;2024-02-26T00:06:13;95104.06;;;-1.02;100.00
29379;BME280;16362;47.202;15.258;2024-02-26T00:08:40;95097.06;;;-1.01;100.00
29379;BME280;16362;47.202;15.258;2024-02-26T00:11:08;95101.06;;;-0.97;100.00
29379;BME280;16362;47.202;15.258;2024-02-26T00:13:35;95093.53;;;-0.90;100.00
29379;BME280;16362;47.202;15.258;2024-02-26T00:16:03;95094.63;;;-0.83;100.00
29379;BME280;16362;47.202;15.258;2024-02-26T00:18:30;95080.16;;;-0.77;100.00
29379;BME280;16362;47.202;15.258;2024-02-26T00:20:57;95079.94;;;-0.74;100.00
29379;BME280;16362;47.202;15.258;2024-02-26T00:23:24;95069.16;;;-0.71;100.00
29379;BME280;16362;47.202;15.258;2024-02-26T00:25:51;95082.94;;;-0.79;100.00
29379;BME280;16362;47.202;15.258;2024-02-26T00:28:17;95063.88;;;-0.91;100.00
29379;BME280;16362;47.202;15.258;2024-02-26T00:30:46;95064.56;;;-0.89;100.00
29379;BME280;16362;47.202;15.258;2024-02-26T00:33:16;95063.34;;;-0.85;100.00
29379;BME280;16362;47.202;15.258;2024-02-26T00:35:43;95070.75;;;-0.90;100.00
29379;BME280;16362;47.202;15.258;2024-02-26T00:38:11;95065.00;;;-0.93;100.00
29379;BME280;16362;47.202;15.258;2024-02-26T00:40:41;95071.03;;;-0.93;100.00
29379;BME280;16362;47.202;15.258;2024-02-26T00:43:08;95064.28;;;-0.95;100.00
29379;BME280;16362;47.202;15.258;2024-02-26T00:45:35;95061.53;;;-0.94;100.00
29379;BME280;16362;47.202;15.258;2024-02-26T00:48:03;95065.81;;;-0.93;100.00
29379;BME280;16362;47.202;15.258;2024-02-26T00:50:34;95066.91;;;-0.95;100.00
29379;BME280;16362;47.202;15.258;2024-02-26T00:53:02;95056.94;;;-1.02;100.00
29379;BME280;16362;47.202;15.258;2024-02-26T00:55:30;95054.59;;;-1.05;100.00
29379;BME280;16362;47.202;15.258;2024-02-26T00:57:57;95052.56;;;-1.01;100.00
29379;BME280;16362;47.202;15.258;2024-02-26T01:00:23;95054.75;;;-0.96;100.00
29379;BME280;16362;47.202;15.258;2024-02-26T01:02:50;95055.25;;;-1.12;100.00
29379;BME280;16362;47.202;15.258;2024-02-26T01:05:17;95047.13;;;-1.19;100.00
29379;BME280;16362;47.202;15.258;2024-02-26T01:07:44;95046.44;;;-1.11;100.00
29379;BME280;16362;47.202;15.258;2024-02-26T01:10:12;95039.28;;;-1.09;100.00
29379;BME280;16362;47.202;15.258;2024-02-26T01:12:42;95037.13;;;-1.04;100.00
29379;BME280;16362;47.202;15.258;2024-02-26T01:15:09;95045.06;;;-1.06;100.00
29379;BME280;16362;47.202;15.258;2024-02-26T01:17:36;95040.66;;;-1.15;100.00
29379;BME280;16362;47.202;15.258;2024-02-26T01:20:06;95037.91;;;-1.13;100.00
29379;BME280;16362;47.202;15.258;2024-02-26T01:22:34;95034.31;;;-1.12;100.00
29379;BME280;16362;47.202;15.258;2024-02-26T01:25:01;95026.84;;;-1.17;100.00
29379;BME280;16362;47.202;15.258;2024-02-26T01:27:27;95019.66;;;-1.25;100.00
29379;BME280;16362;47.202;15.258;2024-02-26T01:29:55;95017.03;;;-1.25;100.00
29379;BME280;16362;47.202;15.258;2024-02-26T01:32:23;95016.97;;;-1.13;100.00
29379;BME280;16362;47.202;15.258;2024-02-26T01:34:51;95010.34;;;-1.17;100.00
29379;BME280;16362;47.202;15.258;2024-02-26T01:37:19;95011.72;;;-1.13;100.00
29379;BME280;16362;47.202;15.258;2024-02-26T01:39:49;94998.75;;;-1.15;100.00
29379;BME280;16362;47.202;15.258;2024-02-26T01:42:16;94996.16;;;-1.15;100.00
29379;BME280;16362;47.202;15.258;2024-02-26T01:44:43;94997.91;;;-1.15;100.00
29379;BME280;16362;47.202;15.258;2024-02-26T01:47:11;94989.34;;;-1.27;100.00
29379;BME280;16362;47.202;15.258;2024-02-26T01:49:39;94994.97;;;-1.32;100.00
29379;BME280;16362;47.202;15.258;2024-02-26T01:52:09;94997.31;;;-1.39;100.00
29379;BME280;16362;47.202;15.258;2024-02-26T01:54:37;95004.22;;;-1.28;100.00
29379;BME280;16362;47.202;15.258;2024-02-26T01:57:05;94999.84;;;-1.17;100.00
29379;BME280;16362;47.202;15.258;2024-02-26T01:59:34;94996.56;;;-1.10;100.00
29379;BME280;16362;47.202;15.258;2024-02-26T02:02:03;95000.09;;;-1.21;100.00
29379;BME280;16362;47.202;15.258;2024-02-26T02:04:32;94982.03;;;-1.33;100.00
29379;BME280;16362;47.202;15.258;2024-02-26T02:07:00;94988.50;;;-1.38;100.00
29379;BME280;16362;47.202;15.258;2024-02-26T02:09:30;94991.88;;;-1.57;100.00
29379;BME280;16362;47.202;15.258;2024-02-26T02:12:03;94991.31;;;-1.50;100.00
29379;BME280;16362;47.202;15.258;2024-02-26T02:14:37;94994.66;;;-1.48;100.00
29379;BME280;16362;47.202;15.258;2024-02-26T02:17:05;94992.03;;;-1.48;100.00
29379;BME280;16362;47.202;15.258;2024-02-26T02:19:32;94998.06;;;-1.58;100.00
29379;BME280;16362;47.202;15.258;2024-02-26T02:22:05;94987.63;;;-1.48;100.00
29379;BME280;16362;47.202;15.258;2024-02-26T02:24:32;94982.63;;;-1.61;100.00
29379;BME280;16362;47.202;15.258;2024-02-26T02:27:01;94979.13;;;-1.71;100.00
29379;BME280;16362;47.202;15.258;2024-02-26T02:29:32;94988.19;;;-1.75;100.00
29379;BME280;16362;47.202;15.258;2024-02-26T02:32:03;94992.06;;;-1.70;100.00
29379;BME280;16362;47.202;15.258;2024-02-26T02:34:32;94978.44;;;-1.73;100.00
29379;BME280;16362;47.202;15.258;2024-02-26T02:37:00;94979.41;;;-1.74;100.00
29379;BME280;16362;47.202;15.258;2024-02-26T02:39:28;94975.13;;;-1.75;100.00
29379;BME280;16362;47.202;15.258;2024-02-26T02:41:55;94983.91;;;-1.76;100.00
29379;BME280;16362;47.202;15.258;2024-02-26T02:44:23;94979.09;;;-1.81;100.00
29379;BME280;16362;47.202;15.258;2024-02-26T02:46:53;94973.44;;;-1.76;100.00
29379;BME280;16362;47.202;15.258;2024-02-26T02:49:24;94971.69;;;-1.76;100.00
29379;BME280;16362;47.202;15.258;2024-02-26T02:51:52;94971.38;;;-1.82;100.00
29379;BME280;16362;47.202;15.258;2024-02-26T02:54:33;94976.47;;;-1.81;100.00
29379;BME280;16362;47.202;15.258;2024-02-26T02:56:59;94978.44;;;-1.73;100.00
29379;BME280;16362;47.202;15.258;2024-02-26T02:59:28;94971.44;;;-1.63;100.00
29379;BME280;16362;47.202;15.258;2024-02-26T03:01:55;94967.72;;;-1.70;100.00
29379;BME280;16362;47.202;15.258;2024-02-26T03:04:32;94968.84;;;-1.63;100.00
29379;BME280;16362;47.202;15.258;2024-02-26T03:07:02;94958.09;;;-1.60;100.00
29379;BME280;16362;47.202;15.258;2024-02-26T03:09:34;94974.50;;;-1.58;100.00
29379;BME280;16362;47.202;15.258;2024-02-26T03:12:06;94967.22;;;-1.54;100.00
29379;BME280;16362;47.202;15.258;2024-02-26T03:14:34;94958.81;;;-1.58;100.00
29379;BME280;16362;47.202;15.258;2024-02-26T03:17:04;94963.63;;;-1.53;100.00
29379;BME280;16362;47.202;15.258;2024-02-26T03:19:34;94963.53;;;-1.51;100.00
29379;BME280;16362;47.202;15.258;2024-02-26T03:22:04;94968.31;;;-1.57;100.00
29379;BME280;16362;47.202;15.258;2024-02-26T03:24:30;94961.41;;;-1.58;100.00
29379;BME280;16362;47.202;15.258;2024-02-26T03:27:01;94957.00;;;-1.57;100.00
29379;BME280;16362;47.202;15.258;2024-02-26T03:29:28;94960.19;;;-1.54;100.00
29379;BME280;16362;47.202;15.258;2024-02-26T03:31:54;94956.19;;;-1.58;100.00
29379;BME280;16362;47.202;15.258;2024-02-26T03:34:22;94971.63;;;-1.55;100.00
29379;BME280;16362;47.202;15.258;2024-02-26T03:36:52;94966.50;;;-1.56;100.00
29379;BME280;16362;47.202;15.258;2024-02-26T03:39:21;94968.34;;;-1.47;100.00
29379;BME280;16362;47.202;15.258;2024-02-26T03:41:51;94957.44;;;-1.52;100.00
29379;BME280;16362;47.202;15.258;2024-02-26T03:44:19;94949.44;;;-1.60;100.00
29379;BME280;16362;47.202;15.258;2024-02-26T03:46:49;94943.50;;;-1.62;100.00
29379;BME280;16362;47.202;15.258;2024-02-26T03:49:17;94941.28;;;-1.67;100.00
29379;BME280;16362;47.202;15.258;2024-02-26T03:51:45;94936.47;;;-1.72;100.00
29379;BME280;16362;47.202;15.258;2024-02-26T03:54:23;94943.31;;;-1.71;100.00
29379;BME280;16362;47.202;15.258;2024-02-26T03:56:52;94948.44;;;-1.69;100.00
29379;BME280;16362;47.202;15.258;2024-02-26T03:59:21;94949.00;;;-1.65;100.00
29379;BME280;16362;47.202;15.258;2024-02-26T04:01:50;94941.56;;;-1.70;100.00
29379;BME280;16362;47.202;15.258;2024-02-26T04:04:19;94934.38;;;-1.68;100.00
29379;BME280;16362;47.202;15.258;2024-02-26T04:06:46;94951.56;;;-1.75;100.00
29379;BME280;16362;47.202;15.258;2024-02-26T04:09:15;94954.78;;;-1.62;100.00
29379;BME280;16362;47.202;15.258;2024-02-26T04:11:43;94939.63;;;-1.68;100.00
29379;BME280;16362;47.202;15.258;2024-02-26T04:14:11;94936.03;;;-1.67;100.00
29379;BME280;16362;47.202;15.258;2024-02-26T04:16:42;94937.97;;;-1.69;100.00
29379;BME280;16362;47.202;15.258;2024-02-26T04:19:14;94951.06;;;-1.69;100.00
29379;BME280;16362;47.202;15.258;2024-02-26T04:21:41;94941.25;;;-1.77;100.00
29379;BME280;16362;47.202;15.258;2024-02-26T04:24:09;94942.91;;;-1.76;100.00
29379;BME280;16362;47.202;15.258;2024-02-26T04:26:37;94951.31;;;-1.72;100.00
29379;BME280;16362;47.202;15.258;2024-02-26T04:29:06;94940.84;;;-1.72;100.00
29379;BME280;16362;47.202;15.258;2024-02-26T04:31:37;94940.00;;;-1.82;100.00
29379;BME280;16362;47.202;15.258;2024-02-26T04:34:07;94951.53;;;-1.85;100.00
29379;BME280;16362;47.202;15.258;2024-02-26T04:36:41;94949.44;;;-1.91;100.00
29379;BME280;16362;47.202;15.258;2024-02-26T04:39:11;94936.22;;;-1.90;100.00
29379;BME280;16362;47.202;15.258;2024-02-26T04:41:41;94941.94;;;-1.75;100.00
29379;BME280;16362;47.202;15.258;2024-02-26T04:44:08;94935.75;;;-1.74;100.00
29379;BME280;16362;47.202;15.258;2024-02-26T04:46:44;94944.31;;;-1.72;100.00
29379;BME280;16362;47.202;15.258;2024-02-26T04:49:12;94947.88;;;-1.73;100.00
29379;BME280;16362;47.202;15.258;2024-02-26T04:51:42;94949.66;;;-1.73;100.00
29379;BME280;16362;47.202;15.258;2024-02-26T04:54:14;94948.69;;;-1.72;100.00
29379;BME280;16362;47.202;15.258;2024-02-26T04:56:41;94953.47;;;-1.77;100.00
29379;BME280;16362;47.202;15.258;2024-02-26T04:59:08;94947.53;;;-1.89;100.00
29379;BME280;16362;47.202;15.258;2024-02-26T05:01:35;94938.78;;;-1.99;100.00
29379;BME280;16362;47.202;15.258;2024-02-26T05:04:04;94937.00;;;-1.99;100.00
29379;BME280;16362;47.202;15.258;2024-02-26T05:06:33;94931.59;;;-2.07;100.00
29379;BME280;16362;47.202;15.258;2024-02-26T05:09:00;94939.44;;;-2.07;100.00
29379;BME280;16362;47.202;15.258;2024-02-26T05:11:29;94938.75;;;-2.09;100.00
29379;BME280;16362;47.202;15.258;2024-02-26T05:13:57;94940.59;;;-2.00;100.00
29379;BME280;16362;47.202;15.258;2024-02-26T05:16:29;94949.84;;;-1.96;100.00
29379;BME280;16362;47.202;15.258;2024-02-26T05:18:57;94935.72;;;-1.83;100.00
29379;BME280;16362;47.202;15.258;2024-02-26T05:21:25;94943.56;;;-1.83;100.00
29379;BME280;16362;47.202;15.258;2024-02-26T05:23:53;94935.91;;;-1.96;100.00
29379;BME280;16362;47.202;15.258;2024-02-26T05:26:22;94938.16;;;-1.92;100.00
29379;BME280;16362;47.202;15.258;2024-02-26T05:28:49;94945.88;;;-1.90;100.00
29379;BME280;16362;47.202;15.258;2024-02-26T05:31:17;94944.78;;;-1.88;100.00
29379;BME280;16362;47.202;15.258;2024-02-26T05:33:45;94948.06;;;-1.86;100.00
29379;BME280;16362;47.202;15.258;2024-02-26T05:36:19;94939.81;;;-1.91;100.00
29379;BME280;16362;47.202;15.258;2024-02-26T05:38:54;94940.50;;;-1.89;100.00
29379;BME280;16362;47.202;15.258;2024-02-26T05:41:27;94942.81;;;-1.95;100.00
29379;BME280;16362;47.202;15.258;2024-02-26T05:43:58;94944.59;;;-1.96;100.00
29379;BME280;16362;47.202;15.258;2024-02-26T05:46:27;94942.00;;;-1.96;100.00
29379;BME280;16362;47.202;15.258;2024-02-26T05:48:56;94943.22;;;-2.00;100.00
29379;BME280;16362;47.202;15.258;2024-02-26T05:51:25;94944.16;;;-2.01;100.00
29379;BME280;16362;47.202;15.258;2024-02-26T05:53:55;94945.25;;;-2.04;100.00
29379;BME280;16362;47.202;15.258;2024-02-26T05:56:29;94943.06;;;-1.98;100.00
29379;BME280;16362;47.202;15.258;2024-02-26T05:58:56;94951.38;;;-1.93;100.00
29379;BME280;16362;47.202;15.258;2024-02-26T06:01:29;94956.47;;;-1.92;100.00
29379;BME280;16362;47.202;15.258;2024-02-26T06:04:00;94960.47;;;-1.88;100.00
29379;BME280;16362;47.202;15.258;2024-02-26T06:06:32;94960.34;;;-1.86;100.00
29379;BME280;16362;47.202;15.258;2024-02-26T06:09:02;94956.78;;;-1.85;100.00
29379;BME280;16362;47.202;15.258;2024-02-26T06:11:32;94967.69;;;-1.80;100.00
29379;BME280;16362;47.202;15.258;2024-02-26T06:14:03;94955.81;;;-1.84;100.00
29379;BME280;16362;47.202;15.258;2024-02-26T06:16:32;94967.13;;;-1.74;100.00
29379;BME280;16362;47.202;15.258;2024-02-26T06:19:00;94968.00;;;-1.63;100.00
29379;BME280;16362;47.202;15.258;2024-02-26T06:21:36;94962.66;;;-1.62;100.00
29379;BME280;16362;47.202;15.258;2024-02-26T06:24:07;94968.97;;;-1.64;100.00
29379;BME280;16362;47.202;15.258;2024-02-26T06:26:35;94971.44;;;-1.63;100.00
29379;BME280;16362;47.202;15.258;2024-02-26T06:29:03;94972.56;;;-1.56;100.00
29379;BME280;16362;47.202;15.258;2024-02-26T06:31:31;94969.84;;;-1.54;100.00
29379;BME280;16362;47.202;15.258;2024-02-26T06:34:00;94978.09;;;-1.49;100.00
29379;BME280;16362;47.202;15.258;2024-02-26T06:36:30;94981.56;;;-1.48;100.00
29379;BME280;16362;47.202;15.258;2024-02-26T06:39:00;94989.31;;;-1.37;100.00
29379;BME280;16362;47.202;15.258;2024-02-26T06:41:30;94991.56;;;-1.23;100.00
29379;BME280;16362;47.202;15.258;2024-02-26T06:43:57;94983.06;;;-1.05;100.00
29379;BME280;16362;47.202;15.258;2024-02-26T06:46:24;94990.69;;;-0.82;100.00
29379;BME280;16362;47.202;15.258;2024-02-26T06:48:55;94989.47;;;-0.69;100.00
29379;BME280;16362;47.202;15.258;2024-02-26T06:51:22;94993.88;;;-0.40;100.00
29379;BME280;16362;47.202;15.258;2024-02-26T06:53:50;95003.28;;;-0.18;100.00
29379;BME280;16362;47.202;15.258;2024-02-26T06:56:18;94997.16;;;-0.08;100.00
29379;BME280;16362;47.202;15.258;2024-02-26T06:58:47;95002.97;;;-0.05;100.00
29379;BME280;16362;47.202;15.258;2024-02-26T07:01:14;94999.94;;;0.00;100.00
29379;BME280;16362;47.202;15.258;2024-02-26T07:03:43;95006.81;;;0.01;100.00
29379;BME280;16362;47.202;15.258;2024-02-26T07:06:16;95006.28;;;0.07;100.00
29379;BME280;16362;47.202;15.258;2024-02-26T07:08:43;95000.56;;;0.22;100.00
29379;BME280;16362;47.202;15.258;2024-02-26T07:11:13;94999.00;;;0.39;100.00
29379;BME280;16362;47.202;15.258;2024-02-26T07:13:40;94996.91;;;0.52;100.00
29379;BME280;16362;47.202;15.258;2024-02-26T07:16:10;94993.13;;;0.64;100.00
29379;BME280;16362;47.202;15.258;2024-02-26T07:18:38;94993.03;;;0.84;100.00
29379;BME280;16362;47.202;15.258;2024-02-26T07:21:06;94996.28;;;0.96;100.00
29379;BME280;16362;47.202;15.258;2024-02-26T07:23:38;94991.03;;;0.96;100.00
29379;BME280;16362;47.202;15.258;2024-02-26T07:26:06;94998.44;;;1.10;100.00
29379;BME280;16362;47.202;15.258;2024-02-26T07:28:38;94992.38;;;1.28;100.00
29379;BME280;16362;47.202;15.258;2024-02-26T07:31:06;94986.88;;;1.39;100.00
29379;BME280;16362;47.202;15.258;2024-02-26T07:33:36;94983.91;;;1.52;100.00
29379;BME280;16362;47.202;15.258;2024-02-26T07:36:03;94985.47;;;1.63;100.00
29379;BME280;16362;47.202;15.258;2024-02-26T07:38:31;94987.81;;;1.66;100.00
29379;BME280;16362;47.202;15.258;2024-02-26T07:41:12;94988.13;;;1.63;100.00
29379;BME280;16362;47.202;15.258;2024-02-26T07:43:38;94997.97;;;1.79;100.00
29379;BME280;16362;47.202;15.258;2024-02-26T07:46:07;94998.91;;;1.96;100.00
29379;BME280;16362;47.202;15.258;2024-02-26T07:48:40;94986.91;;;2.19;100.00
29379;BME280;16362;47.202;15.258;2024-02-26T07:51:12;94993.75;;;2.30;100.00
29379;BME280;16362;47.202;15.258;2024-02-26T07:53:40;95003.56;;;2.46;100.00
29379;BME280;16362;47.202;15.258;2024-02-26T07:56:09;95001.00;;;2.63;100.00
29379;BME280;16362;47.202;15.258;2024-02-26T07:58:38;94997.25;;;2.65;100.00
29379;BME280;16362;47.202;15.258;2024-02-26T08:01:05;94992.31;;;2.70;100.00
29379;BME280;16362;47.202;15.258;2024-02-26T08:03:37;94996.94;;;2.77;100.00
29379;BME280;16362;47.202;15.258;2024-02-26T08:06:04;94997.25;;;3.08;100.00
29379;BME280;16362;47.202;15.258;2024-02-26T08:08:30;95012.69;;;3.46;100.00
29379;BME280;16362;47.202;15.258;2024-02-26T08:10:57;95007.59;;;3.44;100.00
29379;BME280;16362;47.202;15.258;2024-02-26T08:13:25;95005.97;;;3.68;100.00
29379;BME280;16362;47.202;15.258;2024-02-26T08:15:52;95007.31;;;3.88;100.00
29379;BME280;16362;47.202;15.258;2024-02-26T08:18:19;94990.16;;;4.01;100.00
29379;BME280;16362;47.202;15.258;2024-02-26T08:20:46;94984.88;;;4.17;100.00
29379;BME280;16362;47.202;15.258;2024-02-26T08:23:17;94989.28;;;4.50;100.00
29379;BME280;16362;47.202;15.258;2024-02-26T08:25:44;94981.38;;;4.42;100.00
29379;BME280;16362;47.202;15.258;2024-02-26T08:28:11;94980.72;;;4.56;100.00
29379;BME280;16362;47.202;15.258;2024-02-26T08:30:39;94985.13;;;4.64;100.00
29379;BME280;16362;47.202;15.258;2024-02-26T08:33:09;94983.81;;;4.60;100.00
29379;BME280;16362;47.202;15.258;2024-02-26T08:35:37;94979.72;;;4.49;100.00
29379;BME280;16362;47.202;15.258;2024-02-26T08:38:03;94971.59;;;4.59;100.00
29379;BME280;16362;47.202;15.258;2024-02-26T08:40:31;94967.75;;;4.69;100.00
29379;BME280;16362;47.202;15.258;2024-02-26T08:42:58;94970.44;;;4.61;100.00
29379;BME280;16362;47.202;15.258;2024-02-26T08:45:26;94968.97;;;4.67;100.00
29379;BME280;16362;47.202;15.258;2024-02-26T08:47:56;94964.94;;;4.79;100.00
29379;BME280;16362;47.202;15.258;2024-02-26T08:50:25;94962.56;;;5.01;100.00
29379;BME280;16362;47.202;15.258;2024-02-26T08:52:54;94971.03;;;5.28;100.00
29379;BME280;16362;47.202;15.258;2024-02-26T08:55:23;94965.78;;;5.51;100.00
29379;BME280;16362;47.202;15.258;2024-02-26T08:57:55;94969.72;;;5.78;100.00
29379;BME280;16362;47.202;15.258;2024-02-26T09:00:23;94973.72;;;5.51;100.00
29379;BME280;16362;47.202;15.258;2024-02-26T09:02:50;94977.78;;;5.62;100.00
29379;BME280;16362;47.202;15.258;2024-02-26T09:05:20;94966.94;;;5.71;100.00
29379;BME280;16362;47.202;15.258;2024-02-26T09:07:48;94958.22;;;5.63;100.00
29379;BME280;16362;47.202;15.258;2024-02-26T09:10:15;94960.88;;;5.63;100.00
29379;BME280;16362;47.202;15.258;2024-02-26T09:12:44;94958.16;;;5.48;100.00
29379;BME280;16362;47.202;15.258;2024-02-26T09:15:14;94947.31;;;5.66;100.00
29379;BME280;16362;47.202;15.258;2024-02-26T09:17:41;94960.31;;;5.76;100.00
29379;BME280;16362;47.202;15.258;2024-02-26T09:20:10;94965.19;;;5.87;100.00
29379;BME280;16362;47.202;15.258;2024-02-26T09:22:47;94957.91;;;6.12;100.00
29379;BME280;16362;47.202;15.258;2024-02-26T09:25:56;94963.69;;;6.31;100.00
29379;BME280;16362;47.202;15.258;2024-02-26T09:28:34;94961.50;;;6.49;100.00
29379;BME280;16362;47.202;15.258;2024-02-26T09:31:24;94968.66;;;6.49;100.00
29379;BME280;16362;47.202;15.258;2024-02-26T09:33:51;94976.72;;;6.55;100.00
29379;BME280;16362;47.202;15.258;2024-02-26T09:36:55;94967.84;;;6.63;100.00
29379;BME280;16362;47.202;15.258;2024-02-26T09:40:00;94971.69;;;6.61;100.00
29379;BME280;16362;47.202;15.258;2024-02-26T09:42:32;94976.28;;;6.29;100.00
29379;BME280;16362;47.202;15.258;2024-02-26T09:45:05;94981.50;;;6.37;100.00
29379;BME280;16362;47.202;15.258;2024-02-26T09:47:38;94974.22;;;6.39;100.00
29379;BME280;16362;47.202;15.258;2024-02-26T09:50:09;94979.72;;;6.52;100.00
29379;BME280;16362;47.202;15.258;2024-02-26T09:52:37;94972.78;;;6.81;100.00
29379;BME280;16362;47.202;15.258;2024-02-26T09:55:06;94981.56;;;7.27;100.00
29379;BME280;16362;47.202;15.258;2024-02-26T09:57:38;94982.91;;;7.37;100.00
29379;BME280;16362;47.202;15.258;2024-02-26T10:00:16;94968.84;;;7.58;100.00
29379;BME280;16362;47.202;15.258;2024-02-26T10:02:47;94963.59;;;7.65;100.00
29379;BME280;16362;47.202;15.258;2024-02-26T10:05:17;94968.31;;;7.85;100.00
29379;BME280;16362;47.202;15.258;2024-02-26T10:07:46;94971.66;;;7.93;100.00
29379;BME280;16362;47.202;15.258;2024-02-26T10:10:17;94960.63;;;7.97;100.00
29379;BME280;16362;47.202;15.258;2024-02-26T10:12:45;94969.50;;;8.04;100.00
29379;BME280;16362;47.202;15.258;2024-02-26T10:15:12;94964.88;;;8.13;100.00
29379;BME280;16362;47.202;15.258;2024-02-26T10:17:39;94964.03;;;8.55;98.78
29379;BME280;16362;47.202;15.258;2024-02-26T10:20:15;94963.63;;;8.58;96.46
29379;BME280;16362;47.202;15.258;2024-02-26T10:22:47;94966.34;;;8.65;85.04
29379;BME280;16362;47.202;15.258;2024-02-26T10:25:20;94972.25;;;8.61;85.16
29379;BME280;16362;47.202;15.258;2024-02-26T10:27:47;94959.13;;;8.59;82.63
29379;BME280;16362;47.202;15.258;2024-02-26T10:30:22;94964.28;;;8.67;84.48
29379;BME280;16362;47.202;15.258;2024-02-26T10:32:50;94960.66;;;8.75;83.75
29379;BME280;16362;47.202;15.258;2024-02-26T10:35:19;94955.09;;;8.70;84.04
29379;BME280;16362;47.202;15.258;2024-02-26T10:37:50;94967.09;;;8.87;79.57
29379;BME280;16362;47.202;15.258;2024-02-26T10:40:19;94968.28;;;8.85;78.59
29379;BME280;16362;47.202;15.258;2024-02-26T10:42:47;94967.63;;;8.76;85.10
29379;BME280;16362;47.202;15.258;2024-02-26T10:45:18;94952.19;;;8.93;83.50
29379;BME280;16362;47.202;15.258;2024-02-26T10:47:46;94962.94;;;8.78;83.69
29379;BME280;16362;47.202;15.258;2024-02-26T10:50:14;94964.94;;;8.69;84.57
29379;BME280;16362;47.202;15.258;2024-02-26T10:52:47;94961.06;;;8.72;81.59
29379;BME280;16362;47.202;15.258;2024-02-26T10:55:16;94966.13;;;8.67;82.11
29379;BME280;16362;47.202;15.258;2024-02-26T10:57:52;94953.16;;;8.85;79.01
29379;BME280;16362;47.202;15.258;2024-02-26T11:00:21;94959.41;;;9.06;79.23
29379;BME280;16362;47.202;15.258;2024-02-26T11:02:53;94958.56;;;9.40;78.00
29379;BME280;16362;47.202;15.258;2024-02-26T11:05:24;94958.75;;;9.46;76.67
29379;BME280;16362;47.202;15.258;2024-02-26T11:07:52;94943.47;;;9.61;73.13
29379;BME280;16362;47.202;15.258;2024-02-26T11:10:31;94945.13;;;9.82;73.58
29379;BME280;16362;47.202;15.258;2024-02-26T11:13:05;94940.66;;;9.89;69.94
29379;BME280;16362;47.202;15.258;2024-02-26T11:15:36;94952.66;;;9.58;69.11
29379;BME280;16362;47.202;15.258;2024-02-26T11:18:07;94947.13;;;9.53;72.82
29379;BME280;16362;47.202;15.258;2024-02-26T11:20:41;94948.38;;;9.64;72.59
29379;BME280;16362;47.202;15.258;2024-02-26T11:23:10;94950.22;;;9.57;73.81
29379;BME280;16362;47.202;15.258;2024-02-26T11:25:43;94946.97;;;9.75;72.52
29379;BME280;16362;47.202;15.258;2024-02-26T11:28:14;94944.63;;;9.45;73.69
29379;BME280;16362;47.202;15.258;2024-02-26T11:30:47;94938.31;;;9.46;73.94
29379;BME280;16362;47.202;15.258;2024-02-26T11:33:16;94938.22;;;9.26;75.23
29379;BME280;16362;47.202;15.258;2024-02-26T11:35:45;94928.97;;;9.15;76.95
29379;BME280;16362;47.202;15.258;2024-02-26T11:38:24;94931.81;;;9.14;75.97
29379;BME280;16362;47.202;15.258;2024-02-26T11:40:54;94931.94;;;9.54;78.88
29379;BME280;16362;47.202;15.258;2024-02-26T11:43:53;94929.59;;;9.99;76.27
29379;BME280;16362;47.202;15.258;2024-02-26T11:46:30;94932.69;;;10.23;69.77
29379;BME280;16362;47.202;15.258;2024-02-26T11:51:57;94938.19;;;9.81;71.15
29379;BME280;16362;47.202;15.258;2024-02-26T11:54:58;94945.31;;;9.67;73.58
29379;BME280;16362;47.202;15.258;2024-02-26T11:57:39;94938.75;;;9.63;71.62
29379;BME280;16362;47.202;15.258;2024-02-26T12:00:14;94946.31;;;9.53;72.39
29379;BME280;16362;47.202;15.258;2024-02-26T12:02:47;94935.44;;;9.48;72.22
29379;BME280;16362;47.202;15.258;2024-02-26T12:05:17;94944.03;;;9.56;72.08
29379;BME280;16362;47.202;15.258;2024-02-26T12:07:59;94930.09;;;9.48;72.67
29379;BME280;16362;47.202;15.258;2024-02-26T12:10:38;94933.34;;;9.36;73.77
29379;BME280;16362;47.202;15.258;2024-02-26T12:13:15;94941.78;;;9.47;74.12
29379;BME280;16362;47.202;15.258;2024-02-26T12:18:24;94933.03;;;9.66;72.10
29379;BME280;16362;47.202;15.258;2024-02-26T12:21:02;94926.81;;;9.52;72.11
29379;BME280;16362;47.202;15.258;2024-02-26T12:23:30;94928.44;;;9.47;72.66
29379;BME280;16362;47.202;15.258;2024-02-26T12:26:04;94935.84;;;9.44;72.71
29379;BME280;16362;47.202;15.258;2024-02-26T12:28:36;94928.66;;;9.45;73.09
29379;BME280;16362;47.202;15.258;2024-02-26T12:31:04;94937.88;;;9.42;73.57
29379;BME280;16362;47.202;15.258;2024-02-26T12:33:36;94946.13;;;9.61;72.83
29379;BME280;16362;47.202;15.258;2024-02-26T12:36:09;94924.84;;;9.68;70.97
29379;BME280;16362;47.202;15.258;2024-02-26T12:38:43;94931.22;;;9.87;69.91
29379;BME280;16362;47.202;15.258;2024-02-26T12:41:10;94924.47;;;9.98;69.38
29379;BME280;16362;47.202;15.258;2024-02-26T12:43:46;94912.16;;;10.10;68.12
29379;BME280;16362;47.202;15.258;2024-02-26T12:46:16;94937.16;;;9.95;71.42
29379;BME280;16362;47.202;15.258;2024-02-26T12:48:55;94931.44;;;9.99;69.42
29379;BME280;16362;47.202;15.258;2024-02-26T12:51:30;94930.81;;;10.03;69.26
29379;BME280;16362;47.202;15.258;2024-02-26T12:54:08;94924.47;;;10.04;67.48
29379;BME280;16362;47.202;15.258;2024-02-26T12:56:39;94915.66;;;9.84;69.85
29379;BME280;16362;47.202;15.258;2024-02-26T12:59:07;94924.66;;;9.76;69.94
29379;BME280;16362;47.202;15.258;2024-02-26T13:01:43;94923.44;;;9.92;67.56
29379;BME280;16362;47.202;15.258;2024-02-26T13:04:11;94925.66;;;9.82;70.29
29379;BME280;16362;47.202;15.258;2024-02-26T13:06:50;94929.59;;;9.92;67.71